sensor_id;sensor_type;location;lat;lon;timestamp;P1;durP1;ratioP1;P2;durP2;ratioP2
12110;SDS011;6119;52.372;8.990;2023-08-31T00:00:34;8.50;;;6.97;;
12110;SDS011;6119;52.372;8.990;2023-08-31T00:03:23;11.90;;;7.83;;
12110;SDS011;6119;52.372;8.990;2023-08-31T00:06:10;12.50;;;7.30;;
12110;SDS011;6119;52.372;8.990;2023-08-31T00:08:58;7.80;;;7.00;;
12110;SDS011;6119;52.372;8.990;2023-08-31T00:11:44;9.83;;;7.80;;
12110;SDS011;6119;52.372;8.990;2023-08-31T00:14:31;11.37;;;7.87;;
12110;SDS011;6119;52.372;8.990;2023-08-31T00:17:18;14.27;;;7.77;;
12110;SDS011;6119;52.372;8.990;2023-08-31T00:20:06;8.73;;;7.40;;
12110;SDS011;6119;52.372;8.990;2023-08-31T00:22:57;11.20;;;7.73;;
12110;SDS011;6119;52.372;8.990;2023-08-31T00:25:45;14.50;;;8.57;;
12110;SDS011;6119;52.372;8.990;2023-08-31T00:28:32;9.37;;;7.77;;
12110;SDS011;6119;52.372;8.990;2023-08-31T00:31:19;8.33;;;7.43;;
12110;SDS011;6119;52.372;8.990;2023-08-31T00:34:06;9.43;;;8.00;;
12110;SDS011;6119;52.372;8.990;2023-08-31T00:36:59;10.40;;;7.67;;
12110;SDS011;6119;52.372;8.990;2023-08-31T00:39:46;9.03;;;7.67;;
12110;SDS011;6119;52.372;8.990;2023-08-31T00:42:38;13.20;;;7.80;;
12110;SDS011;6119;52.372;8.990;2023-08-31T00:45:24;13.23;;;8.73;;
12110;SDS011;6119;52.372;8.990;2023-08-31T00:48:12;10.27;;;7.53;;
12110;SDS011;6119;52.372;8.990;2023-08-31T00:51:01;9.93;;;8.10;;
12110;SDS011;6119;52.372;8.990;2023-08-31T00:53:49;9.63;;;7.73;;
12110;SDS011;6119;52.372;8.990;2023-08-31T00:56:38;9.13;;;7.67;;
12110;SDS011;6119;52.372;8.990;2023-08-31T00:59:26;11.63;;;8.07;;
12110;SDS011;6119;52.372;8.990;2023-08-31T01:02:15;11.80;;;8.47;;
12110;SDS011;6119;52.372;8.990;2023-08-31T01:05:08;13.47;;;8.40;;
12110;SDS011;6119;52.372;8.990;2023-08-31T01:08:03;13.20;;;7.83;;
12110;SDS011;6119;52.372;8.990;2023-08-31T01:11:03;9.43;;;7.80;;
12110;SDS011;6119;52.372;8.990;2023-08-31T01:13:59;12.23;;;8.20;;
12110;SDS011;6119;52.372;8.990;2023-08-31T01:16:50;12.73;;;8.23;;
12110;SDS011;6119;52.372;8.990;2023-08-31T01:19:43;12.07;;;8.17;;
12110;SDS011;6119;52.372;8.990;2023-08-31T01:22:37;9.77;;;8.33;;
12110;SDS011;6119;52.372;8.990;2023-08-31T01:25:27;13.10;;;9.10;;
12110;SDS011;6119;52.372;8.990;2023-08-31T01:28:15;13.33;;;8.07;;
12110;SDS011;6119;52.372;8.990;2023-08-31T01:31:03;16.13;;;9.23;;
12110;SDS011;6119;52.372;8.990;2023-08-31T01:33:51;13.63;;;9.67;;
12110;SDS011;6119;52.372;8.990;2023-08-31T01:36:38;14.40;;;9.70;;
12110;SDS011;6119;52.372;8.990;2023-08-31T01:39:30;12.23;;;9.53;;
12110;SDS011;6119;52.372;8.990;2023-08-31T01:42:25;11.80;;;8.93;;
12110;SDS011;6119;52.372;8.990;2023-08-31T01:45:14;14.90;;;10.13;;
12110;SDS011;6119;52.372;8.990;2023-08-31T01:48:06;18.43;;;11.10;;
12110;SDS011;6119;52.372;8.990;2023-08-31T01:50:53;13.73;;;9.20;;
12110;SDS011;6119;52.372;8.990;2023-08-31T01:53:39;12.50;;;9.23;;
12110;SDS011;6119;52.372;8.990;2023-08-31T01:56:26;14.47;;;9.63;;
12110;SDS011;6119;52.372;8.990;2023-08-31T01:59:14;12.83;;;9.47;;
12110;SDS011;6119;52.372;8.990;2023-08-31T02:02:01;13.63;;;9.30;;
12110;SDS011;6119;52.372;8.990;2023-08-31T02:04:49;13.07;;;10.10;;
12110;SDS011;6119;52.372;8.990;2023-08-31T02:07:36;14.07;;;9.57;;
12110;SDS011;6119;52.372;8.990;2023-08-31T02:10:25;14.97;;;9.83;;
12110;SDS011;6119;52.372;8.990;2023-08-31T02:13:13;14.50;;;9.77;;
12110;SDS011;6119;52.372;8.990;2023-08-31T02:16:01;14.43;;;10.53;;
12110;SDS011;6119;52.372;8.990;2023-08-31T02:18:48;13.90;;;10.13;;
12110;SDS011;6119;52.372;8.990;2023-08-31T02:21:35;12.10;;;9.57;;
12110;SDS011;6119;52.372;8.990;2023-08-31T02:24:21;16.63;;;9.93;;
12110;SDS011;6119;52.372;8.990;2023-08-31T02:27:08;12.53;;;9.30;;
12110;SDS011;6119;52.372;8.990;2023-08-31T02:29:54;13.33;;;10.33;;
12110;SDS011;6119;52.372;8.990;2023-08-31T02:32:42;17.13;;;10.97;;
12110;SDS011;6119;52.372;8.990;2023-08-31T02:35:29;12.93;;;9.70;;
12110;SDS011;6119;52.372;8.990;2023-08-31T02:38:16;17.60;;;9.57;;
12110;SDS011;6119;52.372;8.990;2023-08-31T02:41:02;14.33;;;9.97;;
12110;SDS011;6119;52.372;8.990;2023-08-31T02:43:50;14.90;;;9.53;;
12110;SDS011;6119;52.372;8.990;2023-08-31T02:46:37;11.40;;;8.93;;
12110;SDS011;6119;52.372;8.990;2023-08-31T02:49:26;15.27;;;10.37;;
12110;SDS011;6119;52.372;8.990;2023-08-31T02:52:13;12.90;;;9.63;;
12110;SDS011;6119;52.372;8.990;2023-08-31T02:55:00;13.80;;;9.67;;
12110;SDS011;6119;52.372;8.990;2023-08-31T02:57:47;12.33;;;9.73;;
12110;SDS011;6119;52.372;8.990;2023-08-31T03:00:33;13.47;;;9.73;;
12110;SDS011;6119;52.372;8.990;2023-08-31T03:03:20;13.03;;;9.87;;
12110;SDS011;6119;52.372;8.990;2023-08-31T03:06:08;16.23;;;9.33;;
12110;SDS011;6119;52.372;8.990;2023-08-31T03:08:55;15.50;;;9.37;;
12110;SDS011;6119;52.372;8.990;2023-08-31T03:11:42;12.30;;;9.97;;
12110;SDS011;6119;52.372;8.990;2023-08-31T03:14:28;13.73;;;8.80;;
12110;SDS011;6119;52.372;8.990;2023-08-31T03:17:15;15.17;;;8.03;;
12110;SDS011;6119;52.372;8.990;2023-08-31T03:20:02;10.97;;;7.93;;
12110;SDS011;6119;52.372;8.990;2023-08-31T03:22:52;11.40;;;8.33;;
12110;SDS011;6119;52.372;8.990;2023-08-31T03:25:39;14.50;;;8.57;;
12110;SDS011;6119;52.372;8.990;2023-08-31T03:28:25;10.13;;;8.10;;
12110;SDS011;6119;52.372;8.990;2023-08-31T03:31:12;15.27;;;7.90;;
12110;SDS011;6119;52.372;8.990;2023-08-31T03:33:58;15.00;;;8.27;;
12110;SDS011;6119;52.372;8.990;2023-08-31T03:36:45;12.63;;;8.20;;
12110;SDS011;6119;52.372;8.990;2023-08-31T03:39:33;12.97;;;8.93;;
12110;SDS011;6119;52.372;8.990;2023-08-31T03:42:20;11.83;;;9.40;;
12110;SDS011;6119;52.372;8.990;2023-08-31T03:45:07;15.57;;;9.10;;
12110;SDS011;6119;52.372;8.990;2023-08-31T03:47:53;12.27;;;8.57;;
12110;SDS011;6119;52.372;8.990;2023-08-31T03:50:40;10.20;;;8.70;;
12110;SDS011;6119;52.372;8.990;2023-08-31T03:53:27;13.13;;;8.63;;
12110;SDS011;6119;52.372;8.990;2023-08-31T03:56:15;12.83;;;8.13;;
12110;SDS011;6119;52.372;8.990;2023-08-31T03:59:02;10.80;;;8.20;;
12110;SDS011;6119;52.372;8.990;2023-08-31T04:01:49;13.87;;;7.93;;
12110;SDS011;6119;52.372;8.990;2023-08-31T04:04:36;10.47;;;7.97;;
12110;SDS011;6119;52.372;8.990;2023-08-31T04:07:22;12.37;;;8.53;;
12110;SDS011;6119;52.372;8.990;2023-08-31T04:10:09;13.07;;;8.00;;
12110;SDS011;6119;52.372;8.990;2023-08-31T04:12:57;12.50;;;7.67;;
12110;SDS011;6119;52.372;8.990;2023-08-31T04:15:44;11.70;;;7.53;;
12110;SDS011;6119;52.372;8.990;2023-08-31T04:18:30;14.73;;;7.90;;
12110;SDS011;6119;52.372;8.990;2023-08-31T04:21:17;9.43;;;7.83;;
12110;SDS011;6119;52.372;8.990;2023-08-31T04:24:04;13.47;;;7.30;;
12110;SDS011;6119;52.372;8.990;2023-08-31T04:26:51;10.47;;;7.83;;
12110;SDS011;6119;52.372;8.990;2023-08-31T04:29:39;11.20;;;8.20;;
12110;SDS011;6119;52.372;8.990;2023-08-31T04:32:26;15.73;;;8.47;;
12110;SDS011;6119;52.372;8.990;2023-08-31T04:35:13;12.23;;;8.30;;
12110;SDS011;6119;52.372;8.990;2023-08-31T04:38:00;11.20;;;8.43;;
12110;SDS011;6119;52.372;8.990;2023-08-31T04:40:47;12.87;;;8.83;;
12110;SDS011;6119;52.372;8.990;2023-08-31T04:43:34;13.07;;;8.17;;
12110;SDS011;6119;52.372;8.990;2023-08-31T04:46:22;10.63;;;7.57;;
12110;SDS011;6119;52.372;8.990;2023-08-31T04:49:09;13.47;;;8.10;;
12110;SDS011;6119;52.372;8.990;2023-08-31T04:51:56;12.23;;;7.93;;
12110;SDS011;6119;52.372;8.990;2023-08-31T04:54:42;12.63;;;8.10;;
12110;SDS011;6119;52.372;8.990;2023-08-31T04:57:29;13.50;;;8.70;;
12110;SDS011;6119;52.372;8.990;2023-08-31T05:00:16;16.10;;;9.03;;
12110;SDS011;6119;52.372;8.990;2023-08-31T05:03:04;17.23;;;9.10;;
12110;SDS011;6119;52.372;8.990;2023-08-31T05:05:51;14.70;;;8.73;;
12110;SDS011;6119;52.372;8.990;2023-08-31T05:08:38;13.30;;;8.77;;
12110;SDS011;6119;52.372;8.990;2023-08-31T05:11:25;14.40;;;9.53;;
12110;SDS011;6119;52.372;8.990;2023-08-31T05:14:11;14.63;;;9.63;;
12110;SDS011;6119;52.372;8.990;2023-08-31T05:16:58;12.63;;;9.03;;
12110;SDS011;6119;52.372;8.990;2023-08-31T05:19:46;13.77;;;9.67;;
12110;SDS011;6119;52.372;8.990;2023-08-31T05:22:33;13.13;;;9.30;;
12110;SDS011;6119;52.372;8.990;2023-08-31T05:25:20;14.50;;;10.37;;
12110;SDS011;6119;52.372;8.990;2023-08-31T05:28:06;12.33;;;9.80;;
12110;SDS011;6119;52.372;8.990;2023-08-31T05:30:55;16.97;;;10.23;;
12110;SDS011;6119;52.372;8.990;2023-08-31T05:33:43;14.30;;;11.47;;
12110;SDS011;6119;52.372;8.990;2023-08-31T05:36:31;14.67;;;10.70;;
12110;SDS011;6119;52.372;8.990;2023-08-31T05:39:18;17.17;;;10.73;;
12110;SDS011;6119;52.372;8.990;2023-08-31T05:42:04;17.50;;;11.47;;
12110;SDS011;6119;52.372;8.990;2023-08-31T05:44:51;15.00;;;11.87;;
12110;SDS011;6119;52.372;8.990;2023-08-31T05:47:38;19.13;;;12.90;;
12110;SDS011;6119;52.372;8.990;2023-08-31T05:50:26;16.00;;;12.23;;
12110;SDS011;6119;52.372;8.990;2023-08-31T05:53:15;16.70;;;13.30;;
12110;SDS011;6119;52.372;8.990;2023-08-31T05:56:02;20.87;;;13.20;;
12110;SDS011;6119;52.372;8.990;2023-08-31T05:58:50;18.20;;;14.10;;
12110;SDS011;6119;52.372;8.990;2023-08-31T06:01:40;16.37;;;13.33;;
12110;SDS011;6119;52.372;8.990;2023-08-31T06:04:26;18.63;;;14.03;;
12110;SDS011;6119;52.372;8.990;2023-08-31T06:07:13;18.77;;;15.47;;
12110;SDS011;6119;52.372;8.990;2023-08-31T06:10:01;18.43;;;15.20;;
12110;SDS011;6119;52.372;8.990;2023-08-31T06:12:48;24.43;;;17.83;;
12110;SDS011;6119;52.372;8.990;2023-08-31T06:15:37;23.13;;;16.77;;
12110;SDS011;6119;52.372;8.990;2023-08-31T06:18:24;24.03;;;18.67;;
12110;SDS011;6119;52.372;8.990;2023-08-31T06:21:11;25.73;;;19.17;;
12110;SDS011;6119;52.372;8.990;2023-08-31T06:23:58;23.53;;;19.30;;
12110;SDS011;6119;52.372;8.990;2023-08-31T06:26:46;26.27;;;19.83;;
12110;SDS011;6119;52.372;8.990;2023-08-31T06:29:32;23.97;;;18.70;;
12110;SDS011;6119;52.372;8.990;2023-08-31T06:32:19;31.10;;;20.73;;
12110;SDS011;6119;52.372;8.990;2023-08-31T06:35:06;27.90;;;20.63;;
12110;SDS011;6119;52.372;8.990;2023-08-31T06:37:53;30.60;;;22.67;;
12110;SDS011;6119;52.372;8.990;2023-08-31T06:40:41;30.73;;;21.50;;
12110;SDS011;6119;52.372;8.990;2023-08-31T06:43:30;30.70;;;21.80;;
12110;SDS011;6119;52.372;8.990;2023-08-31T06:46:17;30.30;;;22.93;;
12110;SDS011;6119;52.372;8.990;2023-08-31T06:49:08;29.30;;;21.13;;
12110;SDS011;6119;52.372;8.990;2023-08-31T06:51:55;30.90;;;22.20;;
12110;SDS011;6119;52.372;8.990;2023-08-31T06:54:42;29.13;;;22.20;;
12110;SDS011;6119;52.372;8.990;2023-08-31T06:57:29;28.30;;;21.27;;
12110;SDS011;6119;52.372;8.990;2023-08-31T07:00:17;25.23;;;20.83;;
12110;SDS011;6119;52.372;8.990;2023-08-31T07:03:04;32.17;;;22.50;;
12110;SDS011;6119;52.372;8.990;2023-08-31T07:05:52;27.23;;;21.50;;
12110;SDS011;6119;52.372;8.990;2023-08-31T07:08:39;27.50;;;20.70;;
12110;SDS011;6119;52.372;8.990;2023-08-31T07:11:27;27.20;;;21.13;;
12110;SDS011;6119;52.372;8.990;2023-08-31T07:14:13;33.37;;;21.97;;
12110;SDS011;6119;52.372;8.990;2023-08-31T07:17:01;28.73;;;21.10;;
12110;SDS011;6119;52.372;8.990;2023-08-31T07:19:48;27.03;;;20.87;;
12110;SDS011;6119;52.372;8.990;2023-08-31T07:22:35;29.40;;;21.50;;
12110;SDS011;6119;52.372;8.990;2023-08-31T07:25:22;24.63;;;20.47;;
12110;SDS011;6119;52.372;8.990;2023-08-31T07:28:08;26.90;;;20.17;;
12110;SDS011;6119;52.372;8.990;2023-08-31T07:31:00;25.83;;;18.50;;
12110;SDS011;6119;52.372;8.990;2023-08-31T07:33:50;26.33;;;17.87;;
12110;SDS011;6119;52.372;8.990;2023-08-31T07:36:36;22.60;;;16.10;;
12110;SDS011;6119;52.372;8.990;2023-08-31T07:39:24;20.57;;;16.43;;
12110;SDS011;6119;52.372;8.990;2023-08-31T07:42:11;22.27;;;16.33;;
12110;SDS011;6119;52.372;8.990;2023-08-31T07:44:58;18.53;;;15.00;;
12110;SDS011;6119;52.372;8.990;2023-08-31T07:47:45;17.53;;;14.50;;
12110;SDS011;6119;52.372;8.990;2023-08-31T07:50:33;18.70;;;14.43;;
12110;SDS011;6119;52.372;8.990;2023-08-31T07:53:20;19.00;;;15.03;;
12110;SDS011;6119;52.372;8.990;2023-08-31T07:56:07;18.87;;;16.00;;
12110;SDS011;6119;52.372;8.990;2023-08-31T07:58:54;19.97;;;15.43;;
12110;SDS011;6119;52.372;8.990;2023-08-31T08:01:40;20.67;;;15.50;;
12110;SDS011;6119;52.372;8.990;2023-08-31T08:04:27;18.90;;;16.10;;
12110;SDS011;6119;52.372;8.990;2023-08-31T08:07:16;19.90;;;16.20;;
12110;SDS011;6119;52.372;8.990;2023-08-31T08:10:03;19.30;;;14.90;;
12110;SDS011;6119;52.372;8.990;2023-08-31T08:12:50;19.10;;;16.03;;
12110;SDS011;6119;52.372;8.990;2023-08-31T08:15:37;19.53;;;15.13;;
12110;SDS011;6119;52.372;8.990;2023-08-31T08:18:24;18.63;;;14.67;;
12110;SDS011;6119;52.372;8.990;2023-08-31T08:21:11;18.43;;;15.63;;
12110;SDS011;6119;52.372;8.990;2023-08-31T08:23:59;19.40;;;15.13;;
12110;SDS011;6119;52.372;8.990;2023-08-31T08:26:45;20.80;;;14.20;;
12110;SDS011;6119;52.372;8.990;2023-08-31T08:29:32;18.17;;;13.37;;
12110;SDS011;6119;52.372;8.990;2023-08-31T08:32:19;17.50;;;13.30;;
12110;SDS011;6119;52.372;8.990;2023-08-31T08:35:06;16.37;;;14.37;;
12110;SDS011;6119;52.372;8.990;2023-08-31T08:37:53;16.97;;;14.60;;
12110;SDS011;6119;52.372;8.990;2023-08-31T08:40:41;16.77;;;13.07;;
12110;SDS011;6119;52.372;8.990;2023-08-31T08:43:28;18.30;;;13.30;;
12110;SDS011;6119;52.372;8.990;2023-08-31T08:46:15;16.30;;;13.73;;
12110;SDS011;6119;52.372;8.990;2023-08-31T08:49:02;15.83;;;13.33;;
12110;SDS011;6119;52.372;8.990;2023-08-31T08:51:51;16.73;;;12.87;;
12110;SDS011;6119;52.372;8.990;2023-08-31T08:54:38;15.97;;;12.67;;
12110;SDS011;6119;52.372;8.990;2023-08-31T08:57:26;15.83;;;12.83;;
12110;SDS011;6119;52.372;8.990;2023-08-31T09:00:13;13.63;;;11.97;;
12110;SDS011;6119;52.372;8.990;2023-08-31T09:03:00;18.90;;;11.73;;
12110;SDS011;6119;52.372;8.990;2023-08-31T09:05:48;19.23;;;12.00;;
12110;SDS011;6119;52.372;8.990;2023-08-31T09:08:35;17.83;;;11.50;;
12110;SDS011;6119;52.372;8.990;2023-08-31T09:11:22;14.73;;;11.30;;
12110;SDS011;6119;52.372;8.990;2023-08-31T09:14:15;12.47;;;10.43;;
12110;SDS011;6119;52.372;8.990;2023-08-31T09:17:02;15.07;;;11.10;;
12110;SDS011;6119;52.372;8.990;2023-08-31T09:19:58;12.83;;;10.93;;
12110;SDS011;6119;52.372;8.990;2023-08-31T09:22:45;12.20;;;10.07;;
12110;SDS011;6119;52.372;8.990;2023-08-31T09:25:40;10.73;;;8.67;;
12110;SDS011;6119;52.372;8.990;2023-08-31T09:28:28;10.93;;;8.80;;
12110;SDS011;6119;52.372;8.990;2023-08-31T09:31:16;12.23;;;9.83;;
12110;SDS011;6119;52.372;8.990;2023-08-31T09:34:04;11.90;;;10.20;;
12110;SDS011;6119;52.372;8.990;2023-08-31T09:36:51;13.00;;;9.37;;
12110;SDS011;6119;52.372;8.990;2023-08-31T09:39:38;13.37;;;9.43;;
12110;SDS011;6119;52.372;8.990;2023-08-31T09:42:32;9.93;;;8.07;;
12110;SDS011;6119;52.372;8.990;2023-08-31T09:45:25;9.33;;;7.60;;
12110;SDS011;6119;52.372;8.990;2023-08-31T09:48:31;10.33;;;7.80;;
12110;SDS011;6119;52.372;8.990;2023-08-31T09:51:18;9.50;;;7.27;;
12110;SDS011;6119;52.372;8.990;2023-08-31T09:54:09;10.13;;;7.53;;
12110;SDS011;6119;52.372;8.990;2023-08-31T09:56:59;6.73;;;6.03;;
12110;SDS011;6119;52.372;8.990;2023-08-31T09:59:48;8.37;;;6.60;;
12110;SDS011;6119;52.372;8.990;2023-08-31T10:02:35;8.17;;;7.17;;
12110;SDS011;6119;52.372;8.990;2023-08-31T10:05:23;8.73;;;5.90;;
12110;SDS011;6119;52.372;8.990;2023-08-31T10:08:12;8.10;;;6.20;;
12110;SDS011;6119;52.372;8.990;2023-08-31T10:11:01;7.87;;;6.43;;
12110;SDS011;6119;52.372;8.990;2023-08-31T10:13:49;8.07;;;6.13;;
12110;SDS011;6119;52.372;8.990;2023-08-31T10:16:39;7.80;;;5.53;;
12110;SDS011;6119;52.372;8.990;2023-08-31T10:19:26;6.93;;;5.50;;
12110;SDS011;6119;52.372;8.990;2023-08-31T10:22:14;5.63;;;5.10;;
12110;SDS011;6119;52.372;8.990;2023-08-31T10:25:01;8.83;;;5.17;;
12110;SDS011;6119;52.372;8.990;2023-08-31T10:27:50;6.17;;;5.27;;
12110;SDS011;6119;52.372;8.990;2023-08-31T10:30:37;5.17;;;4.67;;
12110;SDS011;6119;52.372;8.990;2023-08-31T10:33:24;6.83;;;3.97;;
12110;SDS011;6119;52.372;8.990;2023-08-31T10:36:13;5.20;;;4.00;;
12110;SDS011;6119;52.372;8.990;2023-08-31T10:39:05;6.93;;;4.10;;
12110;SDS011;6119;52.372;8.990;2023-08-31T10:41:56;4.87;;;3.67;;
12110;SDS011;6119;52.372;8.990;2023-08-31T10:44:46;3.90;;;3.37;;
12110;SDS011;6119;52.372;8.990;2023-08-31T10:47:40;4.90;;;3.73;;
12110;SDS011;6119;52.372;8.990;2023-08-31T10:50:30;5.10;;;3.00;;
12110;SDS011;6119;52.372;8.990;2023-08-31T10:53:28;7.57;;;2.97;;
12110;SDS011;6119;52.372;8.990;2023-08-31T10:56:17;5.17;;;2.43;;
12110;SDS011;6119;52.372;8.990;2023-08-31T10:59:04;4.03;;;2.53;;
12110;SDS011;6119;52.372;8.990;2023-08-31T11:01:57;3.73;;;2.40;;
12110;SDS011;6119;52.372;8.990;2023-08-31T11:04:54;3.20;;;2.53;;
12110;SDS011;6119;52.372;8.990;2023-08-31T11:07:42;3.60;;;2.30;;
12110;SDS011;6119;52.372;8.990;2023-08-31T11:10:30;2.23;;;1.97;;
12110;SDS011;6119;52.372;8.990;2023-08-31T11:13:18;2.40;;;2.20;;
12110;SDS011;6119;52.372;8.990;2023-08-31T11:16:05;2.60;;;2.40;;
12110;SDS011;6119;52.372;8.990;2023-08-31T11:18:53;3.33;;;2.00;;
12110;SDS011;6119;52.372;8.990;2023-08-31T11:21:40;4.90;;;2.40;;
12110;SDS011;6119;52.372;8.990;2023-08-31T11:24:26;2.50;;;2.13;;
12110;SDS011;6119;52.372;8.990;2023-08-31T11:27:13;3.77;;;2.30;;
12110;SDS011;6119;52.372;8.990;2023-08-31T11:30:01;2.70;;;1.90;;
12110;SDS011;6119;52.372;8.990;2023-08-31T11:32:50;4.17;;;2.10;;
12110;SDS011;6119;52.372;8.990;2023-08-31T11:35:38;2.27;;;1.80;;
12110;SDS011;6119;52.372;8.990;2023-08-31T11:38:28;5.03;;;2.07;;
12110;SDS011;6119;52.372;8.990;2023-08-31T11:41:15;3.40;;;1.90;;
12110;SDS011;6119;52.372;8.990;2023-08-31T11:44:03;2.07;;;1.73;;
12110;SDS011;6119;52.372;8.990;2023-08-31T11:46:52;4.47;;;2.03;;
12110;SDS011;6119;52.372;8.990;2023-08-31T11:49:39;1.80;;;1.70;;
12110;SDS011;6119;52.372;8.990;2023-08-31T11:52:27;2.07;;;1.60;;
12110;SDS011;6119;52.372;8.990;2023-08-31T11:55:14;3.10;;;1.80;;
12110;SDS011;6119;52.372;8.990;2023-08-31T11:58:03;2.60;;;1.70;;
12110;SDS011;6119;52.372;8.990;2023-08-31T12:00:57;5.40;;;1.50;;
12110;SDS011;6119;52.372;8.990;2023-08-31T12:03:45;1.70;;;1.47;;
12110;SDS011;6119;52.372;8.990;2023-08-31T12:06:35;4.00;;;1.67;;
12110;SDS011;6119;52.372;8.990;2023-08-31T12:09:21;2.13;;;1.70;;
12110;SDS011;6119;52.372;8.990;2023-08-31T12:12:08;1.73;;;1.10;;
12110;SDS011;6119;52.372;8.990;2023-08-31T12:14:58;1.73;;;0.93;;
12110;SDS011;6119;52.372;8.990;2023-08-31T12:17:48;3.67;;;1.57;;
12110;SDS011;6119;52.372;8.990;2023-08-31T12:20:44;2.43;;;1.43;;
12110;SDS011;6119;52.372;8.990;2023-08-31T12:23:32;4.03;;;1.70;;
12110;SDS011;6119;52.372;8.990;2023-08-31T12:26:18;2.67;;;1.40;;
12110;SDS011;6119;52.372;8.990;2023-08-31T12:29:05;2.20;;;1.20;;
12110;SDS011;6119;52.372;8.990;2023-08-31T12:31:52;2.17;;;1.40;;
12110;SDS011;6119;52.372;8.990;2023-08-31T12:34:38;2.47;;;1.40;;
12110;SDS011;6119;52.372;8.990;2023-08-31T12:37:26;1.57;;;1.00;;
12110;SDS011;6119;52.372;8.990;2023-08-31T12:40:13;2.67;;;1.50;;
12110;SDS011;6119;52.372;8.990;2023-08-31T12:43:00;2.80;;;1.10;;
12110;SDS011;6119;52.372;8.990;2023-08-31T12:45:47;1.20;;;1.10;;
12110;SDS011;6119;52.372;8.990;2023-08-31T12:48:34;5.67;;;1.27;;
12110;SDS011;6119;52.372;8.990;2023-08-31T12:51:20;2.53;;;1.03;;
12110;SDS011;6119;52.372;8.990;2023-08-31T12:54:09;0.80;;;0.70;;
12110;SDS011;6119;52.372;8.990;2023-08-31T12:56:55;1.30;;;0.80;;
12110;SDS011;6119;52.372;8.990;2023-08-31T12:59:42;0.43;;;0.43;;
12110;SDS011;6119;52.372;8.990;2023-08-31T13:02:30;0.67;;;0.60;;
12110;SDS011;6119;52.372;8.990;2023-08-31T13:05:17;1.37;;;0.53;;
12110;SDS011;6119;52.372;8.990;2023-08-31T13:08:05;2.13;;;0.80;;
12110;SDS011;6119;52.372;8.990;2023-08-31T13:10:54;0.40;;;0.40;;
12110;SDS011;6119;52.372;8.990;2023-08-31T13:13:41;0.40;;;0.40;;
12110;SDS011;6119;52.372;8.990;2023-08-31T13:16:27;0.60;;;0.60;;
12110;SDS011;6119;52.372;8.990;2023-08-31T13:19:15;1.40;;;0.60;;
12110;SDS011;6119;52.372;8.990;2023-08-31T13:22:01;1.23;;;0.90;;
12110;SDS011;6119;52.372;8.990;2023-08-31T13:24:48;0.87;;;0.60;;
12110;SDS011;6119;52.372;8.990;2023-08-31T13:27:37;2.90;;;0.90;;
12110;SDS011;6119;52.372;8.990;2023-08-31T13:30:24;1.90;;;0.73;;
12110;SDS011;6119;52.372;8.990;2023-08-31T13:33:10;0.70;;;0.60;;
12110;SDS011;6119;52.372;8.990;2023-08-31T13:35:57;0.90;;;0.70;;
12110;SDS011;6119;52.372;8.990;2023-08-31T13:38:44;1.47;;;0.73;;
12110;SDS011;6119;52.372;8.990;2023-08-31T13:41:31;1.80;;;0.80;;
12110;SDS011;6119;52.372;8.990;2023-08-31T13:44:19;2.17;;;1.40;;
12110;SDS011;6119;52.372;8.990;2023-08-31T13:47:06;2.37;;;1.10;;
12110;SDS011;6119;52.372;8.990;2023-08-31T13:49:53;1.33;;;0.70;;
12110;SDS011;6119;52.372;8.990;2023-08-31T13:52:39;1.83;;;1.40;;
12110;SDS011;6119;52.372;8.990;2023-08-31T13:55:26;2.37;;;0.97;;
12110;SDS011;6119;52.372;8.990;2023-08-31T13:58:12;1.10;;;1.00;;
12110;SDS011;6119;52.372;8.990;2023-08-31T14:01:01;1.90;;;1.07;;
12110;SDS011;6119;52.372;8.990;2023-08-31T14:03:48;1.53;;;1.00;;
12110;SDS011;6119;52.372;8.990;2023-08-31T14:06:35;0.93;;;0.70;;
12110;SDS011;6119;52.372;8.990;2023-08-31T14:09:22;2.60;;;0.90;;
12110;SDS011;6119;52.372;8.990;2023-08-31T14:12:09;2.17;;;0.90;;
12110;SDS011;6119;52.372;8.990;2023-08-31T14:14:55;1.23;;;0.83;;
12110;SDS011;6119;52.372;8.990;2023-08-31T14:17:44;6.50;;;1.40;;
12110;SDS011;6119;52.372;8.990;2023-08-31T14:20:30;1.90;;;0.80;;
12110;SDS011;6119;52.372;8.990;2023-08-31T14:23:17;1.60;;;0.93;;
12110;SDS011;6119;52.372;8.990;2023-08-31T14:26:03;1.77;;;0.83;;
12110;SDS011;6119;52.372;8.990;2023-08-31T14:28:51;1.43;;;0.93;;
12110;SDS011;6119;52.372;8.990;2023-08-31T14:31:38;1.10;;;0.80;;
12110;SDS011;6119;52.372;8.990;2023-08-31T14:34:29;3.23;;;0.90;;
12110;SDS011;6119;52.372;8.990;2023-08-31T14:37:16;2.93;;;1.40;;
12110;SDS011;6119;52.372;8.990;2023-08-31T14:40:03;3.10;;;1.10;;
12110;SDS011;6119;52.372;8.990;2023-08-31T14:42:52;3.50;;;1.40;;
12110;SDS011;6119;52.372;8.990;2023-08-31T14:45:42;3.20;;;1.13;;
12110;SDS011;6119;52.372;8.990;2023-08-31T14:48:29;1.30;;;1.17;;
12110;SDS011;6119;52.372;8.990;2023-08-31T14:51:17;4.83;;;1.53;;
12110;SDS011;6119;52.372;8.990;2023-08-31T14:54:04;4.27;;;1.43;;
12110;SDS011;6119;52.372;8.990;2023-08-31T14:56:51;3.67;;;1.03;;
12110;SDS011;6119;52.372;8.990;2023-08-31T14:59:38;2.40;;;1.20;;
12110;SDS011;6119;52.372;8.990;2023-08-31T15:02:26;4.43;;;1.40;;
12110;SDS011;6119;52.372;8.990;2023-08-31T15:05:14;4.53;;;1.10;;
12110;SDS011;6119;52.372;8.990;2023-08-31T15:08:02;4.40;;;1.43;;
12110;SDS011;6119;52.372;8.990;2023-08-31T15:10:50;3.20;;;1.20;;
12110;SDS011;6119;52.372;8.990;2023-08-31T15:13:38;4.33;;;1.33;;
12110;SDS011;6119;52.372;8.990;2023-08-31T15:16:25;2.43;;;1.33;;
12110;SDS011;6119;52.372;8.990;2023-08-31T15:19:12;3.53;;;1.53;;
12110;SDS011;6119;52.372;8.990;2023-08-31T15:22:00;4.27;;;1.43;;
12110;SDS011;6119;52.372;8.990;2023-08-31T15:24:52;1.43;;;1.03;;
12110;SDS011;6119;52.372;8.990;2023-08-31T15:27:39;2.40;;;1.70;;
12110;SDS011;6119;52.372;8.990;2023-08-31T15:30:25;1.90;;;1.10;;
12110;SDS011;6119;52.372;8.990;2023-08-31T15:33:12;3.73;;;1.50;;
12110;SDS011;6119;52.372;8.990;2023-08-31T15:36:03;1.83;;;1.30;;
12110;SDS011;6119;52.372;8.990;2023-08-31T15:38:50;2.53;;;1.20;;
12110;SDS011;6119;52.372;8.990;2023-08-31T15:41:38;1.90;;;1.00;;
12110;SDS011;6119;52.372;8.990;2023-08-31T15:44:25;3.13;;;1.47;;
12110;SDS011;6119;52.372;8.990;2023-08-31T15:47:12;3.33;;;1.30;;
12110;SDS011;6119;52.372;8.990;2023-08-31T15:49:58;3.33;;;1.40;;
12110;SDS011;6119;52.372;8.990;2023-08-31T15:52:45;2.90;;;1.30;;
12110;SDS011;6119;52.372;8.990;2023-08-31T15:55:35;3.90;;;1.37;;
12110;SDS011;6119;52.372;8.990;2023-08-31T15:58:23;2.07;;;1.13;;
12110;SDS011;6119;52.372;8.990;2023-08-31T16:01:11;1.73;;;0.80;;
12110;SDS011;6119;52.372;8.990;2023-08-31T16:03:58;1.20;;;0.80;;
12110;SDS011;6119;52.372;8.990;2023-08-31T16:06:44;1.80;;;0.70;;
12110;SDS011;6119;52.372;8.990;2023-08-31T16:09:31;1.13;;;0.80;;
12110;SDS011;6119;52.372;8.990;2023-08-31T16:12:18;1.67;;;0.73;;
12110;SDS011;6119;52.372;8.990;2023-08-31T16:15:07;1.20;;;0.80;;
12110;SDS011;6119;52.372;8.990;2023-08-31T16:17:55;0.70;;;0.70;;
12110;SDS011;6119;52.372;8.990;2023-08-31T16:20:42;0.83;;;0.70;;
12110;SDS011;6119;52.372;8.990;2023-08-31T16:23:29;1.33;;;0.80;;
12110;SDS011;6119;52.372;8.990;2023-08-31T16:26:16;2.17;;;1.20;;
12110;SDS011;6119;52.372;8.990;2023-08-31T16:29:03;1.13;;;0.67;;
12110;SDS011;6119;52.372;8.990;2023-08-31T16:31:51;0.83;;;0.80;;
12110;SDS011;6119;52.372;8.990;2023-08-31T16:34:38;1.67;;;0.90;;
12110;SDS011;6119;52.372;8.990;2023-08-31T16:37:25;1.90;;;0.70;;
12110;SDS011;6119;52.372;8.990;2023-08-31T16:40:12;1.40;;;0.87;;
12110;SDS011;6119;52.372;8.990;2023-08-31T16:42:59;1.47;;;0.90;;
12110;SDS011;6119;52.372;8.990;2023-08-31T16:45:45;4.77;;;0.87;;
12110;SDS011;6119;52.372;8.990;2023-08-31T16:48:34;0.80;;;0.80;;
12110;SDS011;6119;52.372;8.990;2023-08-31T16:51:21;1.10;;;0.83;;
12110;SDS011;6119;52.372;8.990;2023-08-31T16:54:08;2.30;;;0.90;;